Time;durP1;ratioP1;P1;durP2;ratioP2;P2;SDS_P1;SDS_P2;PMS_P1;PMS_P2;Temp;Humidity;BMP_temperature;BMP_pressure;BME280_temperature;BME280_humidity;BME280_pressure;Samples;Min_cycle;Max_cycle;Signal;HPM_P1;HPM_P2
2023/01/20 00:01:15;;;;;;;1.15;0.90;;;;;;;;;;5001059;28;20491;-82
2023/01/20 00:03:41;;;;;;;1.00;0.90;;;;;;;;;;5017256;28;20146;-83
2023/01/20 00:06:07;;;;;;;1.20;1.08;;;;;;;;;;5017290;28;20049;-82
2023/01/20 00:08:33;;;;;;;0.95;0.90;;;;;;;;;;5017002;28;20025;-81
2023/01/20 00:11:03;;;;;;;0.80;0.80;;;;;;;;;;5020847;28;20130;-81
2023/01/20 00:13:28;;;;;;;0.75;0.75;;;;;;;;;;5055072;28;20029;-81
2023/01/20 00:15:54;;;;;;;0.90;0.90;;;;;;;;;;5036670;28;20035;-81
2023/01/20 00:18:19;;;;;;;0.82;0.82;;;;;;;;;;5036991;28;20116;-81
2023/01/20 00:20:44;;;;;;;0.70;0.70;;;;;;;;;;5036905;28;20491;-81
2023/01/20 00:23:10;;;;;;;3.13;1.00;;;;;;;;;;5054394;28;20048;-81
2023/01/20 00:25:35;;;;;;;2.00;0.95;;;;;;;;;;5055069;28;20039;-82
2023/01/20 00:28:01;;;;;;;1.05;1.00;;;;;;;;;;5036696;28;20025;-82
2023/01/20 00:30:27;;;;;;;1.00;0.90;;;;;;;;;;5036839;28;20391;-83
2023/01/20 00:32:52;;;;;;;1.80;1.17;;;;;;;;;;5036466;28;20028;-82
2023/01/20 00:35:17;;;;;;;2.95;0.90;;;;;;;;;;5036234;28;20192;-82
2023/01/20 00:37:43;;;;;;;0.80;0.75;;;;;;;;;;5036619;28;20421;-83
2023/01/20 00:40:09;;;;;;;1.00;0.75;;;;;;;;;;5036587;28;20047;-82
2023/01/20 00:42:34;;;;;;;0.70;0.70;;;;;;;;;;5036440;28;20407;-82
2023/01/20 00:44:59;;;;;;;0.98;0.90;;;;;;;;;;5054349;28;20428;-82
2023/01/20 00:47:25;;;;;;;1.23;0.98;;;;;;;;;;5036141;28;20025;-81
2023/01/20 00:49:50;;;;;;;0.90;0.88;;;;;;;;;;5036190;28;20032;-82
2023/01/20 00:52:17;;;;;;;1.00;0.73;;;;;;;;;;5036041;28;20123;-82
2023/01/20 00:54:43;;;;;;;0.80;0.80;;;;;;;;;;5036324;28;20480;-82
2023/01/20 00:57:08;;;;;;;1.00;1.00;;;;;;;;;;5036196;28;20037;-82
2023/01/20 00:59:34;;;;;;;0.75;0.73;;;;;;;;;;5035968;28;20041;-82
2023/01/20 01:01:59;;;;;;;2.05;0.90;;;;;;;;;;5036062;28;20480;-81
2023/01/20 01:04:24;;;;;;;1.17;0.90;;;;;;;;;;5054001;28;20166;-82
2023/01/20 01:06:50;;;;;;;1.00;0.93;;;;;;;;;;5053960;28;20025;-81
2023/01/20 01:09:15;;;;;;;0.90;0.90;;;;;;;;;;5036263;28;20044;-81
2023/01/20 01:11:41;;;;;;;0.80;0.80;;;;;;;;;;5035507;28;20052;-81
2023/01/20 01:14:06;;;;;;;0.77;0.77;;;;;;;;;;5054171;28;20051;-82
2023/01/20 01:16:31;;;;;;;1.77;0.88;;;;;;;;;;5053781;28;20033;-82
2023/01/20 01:18:57;;;;;;;1.20;0.90;;;;;;;;;;5036211;28;20029;-81
2023/01/20 01:21:22;;;;;;;0.90;0.90;;;;;;;;;;5035710;28;20476;-81
2023/01/20 01:23:48;;;;;;;0.80;0.80;;;;;;;;;;5053674;28;20033;-82
2023/01/20 01:26:13;;;;;;;0.73;0.73;;;;;;;;;;5035606;28;20032;-82
2023/01/20 01:28:39;;;;;;;0.93;0.90;;;;;;;;;;5053347;28;20519;-83
2023/01/20 01:31:05;;;;;;;2.15;0.70;;;;;;;;;;5036072;28;20044;-82
2023/01/20 01:33:32;;;;;;;0.98;0.88;;;;;;;;;;5035273;28;20059;-82
2023/01/20 01:35:59;;;;;;;0.80;0.80;;;;;;;;;;5035529;28;20078;-81
2023/01/20 01:38:24;;;;;;;0.70;0.70;;;;;;;;;;5035469;28;20092;-81
2023/01/20 01:40:51;;;;;;;0.63;0.63;;;;;;;;;;5035420;28;20029;-83
2023/01/20 01:43:23;;;;;;;0.93;0.80;;;;;;;;;;5035161;28;20029;-81
2023/01/20 01:45:48;;;;;;;0.80;0.80;;;;;;;;;;5035434;28;20020;-81
2023/01/20 01:48:14;;;;;;;1.23;0.65;;;;;;;;;;5035638;28;20086;-83
2023/01/20 01:50:49;;;;;;;1.40;1.00;;;;;;;;;;5035345;28;20037;-83
2023/01/20 01:53:14;;;;;;;0.80;0.80;;;;;;;;;;5035177;28;20021;-82
2023/01/20 01:55:45;;;;;;;1.00;0.90;;;;;;;;;;5035400;28;20122;-82
2023/01/20 01:58:13;;;;;;;0.70;0.70;;;;;;;;;;5035023;28;20029;-82
2023/01/20 02:00:38;;;;;;;0.80;0.80;;;;;;;;;;5035201;28;20087;-82
2023/01/20 02:03:05;;;;;;;0.75;0.70;;;;;;;;;;5035207;28;20426;-82
2023/01/20 02:05:30;;;;;;;1.40;0.85;;;;;;;;;;5035019;28;20079;-82
2023/01/20 02:07:57;;;;;;;1.05;0.80;;;;;;;;;;5036764;28;20025;-83
2023/01/20 02:10:22;;;;;;;0.70;0.70;;;;;;;;;;5039253;28;20119;-82
2023/01/20 02:12:50;;;;;;;0.77;0.70;;;;;;;;;;5020271;28;20121;-81
2023/01/20 02:15:17;;;;;;;1.67;0.90;;;;;;;;;;4987306;28;20025;-82
2023/01/20 02:18:33;;;;;;;0.80;0.80;;;;;;;;;;5019284;28;20116;-81
2023/01/20 02:21:24;;;;;;;1.02;0.90;;;;;;;;;;4960219;28;20022;-81
2023/01/20 02:24:06;;;;;;;1.40;0.95;;;;;;;;;;4976357;28;20081;-81
2023/01/20 02:26:51;;;;;;;0.98;0.90;;;;;;;;;;4976304;28;20567;-81
2023/01/20 02:29:20;;;;;;;0.98;0.90;;;;;;;;;;4959730;28;20046;-81
2023/01/20 02:32:11;;;;;;;0.80;0.80;;;;;;;;;;4975901;28;20034;-82
2023/01/20 02:34:48;;;;;;;0.95;0.88;;;;;;;;;;4975808;28;20042;-82
2023/01/20 02:37:20;;;;;;;0.82;0.82;;;;;;;;;;4959514;28;20533;-81
2023/01/20 02:40:01;;;;;;;0.80;0.80;;;;;;;;;;4959632;28;20070;-83
2023/01/20 02:42:50;;;;;;;0.98;0.98;;;;;;;;;;4976046;28;20602;-81
2023/01/20 02:45:31;;;;;;;2.53;1.00;;;;;;;;;;4975580;28;20038;-82
2023/01/20 02:48:13;;;;;;;0.77;0.77;;;;;;;;;;4975593;28;20061;-81
2023/01/20 02:50:53;;;;;;;0.80;0.80;;;;;;;;;;4975594;28;20071;-81
2023/01/20 02:53:19;;;;;;;0.88;0.82;;;;;;;;;;4975435;28;20037;-82
2023/01/20 02:55:48;;;;;;;1.23;1.10;;;;;;;;;;4995506;28;20381;-82
2023/01/20 02:58:26;;;;;;;1.00;0.90;;;;;;;;;;5018509;28;20171;-81
2023/01/20 03:01:01;;;;;;;1.00;1.00;;;;;;;;;;5002294;28;20396;-82
2023/01/20 03:03:34;;;;;;;2.65;0.90;;;;;;;;;;5018648;28;20429;-82
2023/01/20 03:06:01;;;;;;;1.02;0.90;;;;;;;;;;5002025;28;20033;-81
2023/01/20 03:08:30;;;;;;;1.20;1.10;;;;;;;;;;5018416;28;20028;-82
2023/01/20 03:11:00;;;;;;;0.88;0.88;;;;;;;;;;5037123;28;20049;-82
2023/01/20 03:13:33;;;;;;;0.95;0.95;;;;;;;;;;5038044;28;20538;-82
2023/01/20 03:16:09;;;;;;;1.20;1.10;;;;;;;;;;5038026;28;20116;-82
2023/01/20 03:18:35;;;;;;;0.82;0.82;;;;;;;;;;5037327;28;20058;-81
2023/01/20 03:21:02;;;;;;;1.42;0.90;;;;;;;;;;5037376;28;20037;-81
2023/01/20 03:23:32;;;;;;;3.25;1.00;;;;;;;;;;5021252;28;20028;-81
2023/01/20 03:25:58;;;;;;;2.47;1.10;;;;;;;;;;5021255;28;20024;-81
2023/01/20 03:28:24;;;;;;;0.75;0.75;;;;;;;;;;5037540;28;20391;-81
2023/01/20 03:30:50;;;;;;;1.77;1.20;;;;;;;;;;5038180;28;20129;-81
2023/01/20 03:33:16;;;;;;;1.08;1.00;;;;;;;;;;5055355;28;20051;-81
2023/01/20 03:35:42;;;;;;;1.20;1.10;;;;;;;;;;5037956;28;20033;-80
2023/01/20 03:38:08;;;;;;;4.53;1.40;;;;;;;;;;5037531;28;20103;-82
2023/01/20 03:40:49;;;;;;;1.52;1.30;;;;;;;;;;5037867;28;20395;-82
2023/01/20 03:43:20;;;;;;;1.55;1.20;;;;;;;;;;5037581;28;20021;-82
2023/01/20 03:45:54;;;;;;;1.40;1.10;;;;;;;;;;5020705;28;20017;-81
2023/01/20 03:48:40;;;;;;;1.30;1.08;;;;;;;;;;5037804;28;20104;-81
2023/01/20 03:51:18;;;;;;;3.15;1.20;;;;;;;;;;5020809;28;20055;-81
2023/01/20 03:53:48;;;;;;;1.27;1.17;;;;;;;;;;5055247;28;20368;-82
2023/01/20 03:56:25;;;;;;;2.95;1.33;;;;;;;;;;5037433;28;20514;-82
2023/01/20 03:58:52;;;;;;;1.63;1.17;;;;;;;;;;5020525;28;20478;-81
2023/01/20 04:01:21;;;;;;;1.70;1.20;;;;;;;;;;5020663;28;20479;-80
2023/01/20 04:03:50;;;;;;;3.42;1.20;;;;;;;;;;5037023;28;20037;-80
2023/01/20 04:06:17;;;;;;;2.75;1.50;;;;;;;;;;5020465;28;20120;-81
2023/01/20 04:08:58;;;;;;;1.40;1.30;;;;;;;;;;5037503;28;20112;-81
2023/01/20 04:11:25;;;;;;;1.67;1.38;;;;;;;;;;5031489;28;20473;-81
2023/01/20 04:13:51;;;;;;;1.30;1.20;;;;;;;;;;5034790;28;20028;-81
2023/01/20 04:16:17;;;;;;;1.40;1.30;;;;;;;;;;5017220;28;20112;-81
2023/01/20 04:18:45;;;;;;;1.83;1.60;;;;;;;;;;5016784;28;20124;-81
2023/01/20 04:21:22;;;;;;;2.90;1.60;;;;;;;;;;5033367;28;20029;-82
2023/01/20 04:23:53;;;;;;;2.25;1.63;;;;;;;;;;5000836;28;20025;-82
2023/01/20 04:26:19;;;;;;;2.33;1.42;;;;;;;;;;5016827;28;20021;-80
2023/01/20 04:28:44;;;;;;;2.22;1.35;;;;;;;;;;5016891;28;20080;-80
2023/01/20 04:31:10;;;;;;;2.00;1.70;;;;;;;;;;5016618;28;20029;-81
2023/01/20 04:33:37;;;;;;;1.50;1.40;;;;;;;;;;5034225;28;20026;-81
2023/01/20 04:36:03;;;;;;;1.90;1.70;;;;;;;;;;5016875;28;20022;-81
2023/01/20 04:38:28;;;;;;;1.92;1.67;;;;;;;;;;5034357;28;20461;-81
2023/01/20 04:40:53;;;;;;;2.13;1.58;;;;;;;;;;5034147;28;20038;-81
2023/01/20 04:43:19;;;;;;;4.13;1.88;;;;;;;;;;5034433;28;20029;-81
2023/01/20 04:45:44;;;;;;;2.05;1.60;;;;;;;;;;5016220;28;20037;-81
2023/01/20 04:48:10;;;;;;;2.53;1.80;;;;;;;;;;5016692;28;20110;-80
2023/01/20 04:50:39;;;;;;;2.50;1.90;;;;;;;;;;5016104;28;20036;-81
2023/01/20 04:53:06;;;;;;;2.53;1.95;;;;;;;;;;4999885;28;20376;-82
2023/01/20 04:55:32;;;;;;;2.95;2.10;;;;;;;;;;5016034;28;20025;-82
2023/01/20 04:57:57;;;;;;;2.33;1.83;;;;;;;;;;5016318;28;20034;-81
2023/01/20 05:00:23;;;;;;;1.80;1.70;;;;;;;;;;5033750;28;20036;-81
2023/01/20 05:02:49;;;;;;;3.28;2.20;;;;;;;;;;5016348;28;20022;-81
2023/01/20 05:05:14;;;;;;;2.55;1.90;;;;;;;;;;5016972;28;20100;-81
2023/01/20 05:07:40;;;;;;;2.30;2.10;;;;;;;;;;5016643;28;20032;-80
2023/01/20 05:10:06;;;;;;;2.42;2.20;;;;;;;;;;5016776;28;20052;-79
2023/01/20 05:12:31;;;;;;;2.25;2.05;;;;;;;;;;5030633;28;20081;-80
2023/01/20 05:14:56;;;;;;;3.30;2.50;;;;;;;;;;5036064;28;20441;-79
2023/01/20 05:17:22;;;;;;;2.88;2.20;;;;;;;;;;5053670;28;20028;-78
2023/01/20 05:19:47;;;;;;;3.22;2.28;;;;;;;;;;5035900;28;20079;-80
2023/01/20 05:22:13;;;;;;;7.32;2.67;;;;;;;;;;5036041;28;20074;-79
2023/01/20 05:24:38;;;;;;;3.80;2.50;;;;;;;;;;5054004;28;20376;-78
2023/01/20 05:27:03;;;;;;;8.70;2.95;;;;;;;;;;5019335;28;20368;-79
2023/01/20 05:29:29;;;;;;;3.42;2.60;;;;;;;;;;5053604;28;20029;-79
2023/01/20 05:31:54;;;;;;;3.83;3.00;;;;;;;;;;5036087;28;20029;-79
2023/01/20 05:34:20;;;;;;;5.18;2.53;;;;;;;;;;5035432;28;20033;-79
2023/01/20 05:36:45;;;;;;;4.03;2.72;;;;;;;;;;5035665;28;20031;-81
2023/01/20 05:39:10;;;;;;;4.85;2.70;;;;;;;;;;5035894;28;20047;-79
2023/01/20 05:41:36;;;;;;;6.85;2.80;;;;;;;;;;5035243;28;20537;-80
2023/01/20 05:44:01;;;;;;;4.15;2.92;;;;;;;;;;5035882;28;20384;-80
2023/01/20 05:46:27;;;;;;;4.90;2.83;;;;;;;;;;5035671;28;20021;-81
2023/01/20 05:48:52;;;;;;;4.13;2.78;;;;;;;;;;5014703;28;20029;-81
2023/01/20 05:51:17;;;;;;;4.75;3.28;;;;;;;;;;5035515;28;20035;-81
2023/01/20 05:53:43;;;;;;;4.25;2.90;;;;;;;;;;5018852;28;20082;-82
2023/01/20 05:56:11;;;;;;;3.30;2.60;;;;;;;;;;5035470;28;20032;-82
2023/01/20 05:58:36;;;;;;;4.70;2.90;;;;;;;;;;5035173;28;20079;-81
2023/01/20 06:01:06;;;;;;;7.65;2.88;;;;;;;;;;5035226;28;20036;-80
2023/01/20 06:03:32;;;;;;;3.63;2.70;;;;;;;;;;5018764;28;20391;-79
2023/01/20 06:06:06;;;;;;;3.67;2.83;;;;;;;;;;5018741;28;20032;-78
2023/01/20 06:08:31;;;;;;;3.60;2.63;;;;;;;;;;5035304;28;20031;-79
2023/01/20 06:10:56;;;;;;;4.05;2.80;;;;;;;;;;5033606;28;20047;-79
2023/01/20 06:13:22;;;;;;;4.28;2.80;;;;;;;;;;5015620;28;20534;-79
2023/01/20 06:15:54;;;;;;;4.55;2.95;;;;;;;;;;5033011;28;20109;-79
2023/01/20 06:18:21;;;;;;;4.40;2.50;;;;;;;;;;5033061;28;20125;-79
2023/01/20 06:20:46;;;;;;;3.95;2.80;;;;;;;;;;5033305;28;20029;-79
2023/01/20 06:23:12;;;;;;;3.92;3.03;;;;;;;;;;5033012;28;20083;-79
2023/01/20 06:25:38;;;;;;;6.40;2.95;;;;;;;;;;5033320;28;20029;-79
2023/01/20 06:28:03;;;;;;;5.07;2.67;;;;;;;;;;5014915;28;20523;-79
2023/01/20 06:30:29;;;;;;;4.07;2.80;;;;;;;;;;5032953;28;20033;-79
2023/01/20 06:32:56;;;;;;;4.32;3.00;;;;;;;;;;5032833;28;20064;-79
2023/01/20 06:35:22;;;;;;;4.82;2.70;;;;;;;;;;5015611;28;20492;-79
2023/01/20 06:37:47;;;;;;;3.55;2.58;;;;;;;;;;5015230;28;20037;-79
2023/01/20 06:40:14;;;;;;;5.82;3.10;;;;;;;;;;5033901;28;20032;-79
2023/01/20 06:42:39;;;;;;;4.13;2.60;;;;;;;;;;4998955;28;20033;-79
2023/01/20 06:45:05;;;;;;;3.40;2.67;;;;;;;;;;4998784;28;20504;-79
2023/01/20 06:47:31;;;;;;;6.68;3.47;;;;;;;;;;5015126;28;20096;-81
2023/01/20 06:49:56;;;;;;;6.35;3.10;;;;;;;;;;5032862;28;20044;-81
2023/01/20 06:52:22;;;;;;;4.35;3.20;;;;;;;;;;5015187;28;20072;-81
2023/01/20 06:54:47;;;;;;;4.18;2.95;;;;;;;;;;5017951;28;20108;-79
2023/01/20 06:57:12;;;;;;;4.10;2.97;;;;;;;;;;5036869;28;20032;-81
2023/01/20 06:59:38;;;;;;;5.32;3.00;;;;;;;;;;5002669;28;20530;-81
2023/01/20 07:02:03;;;;;;;4.18;2.72;;;;;;;;;;5036703;28;20033;-81
2023/01/20 07:04:28;;;;;;;3.40;2.90;;;;;;;;;;5018893;28;20048;-81
2023/01/20 07:06:54;;;;;;;4.13;3.05;;;;;;;;;;5036615;28;20060;-80
2023/01/20 07:09:19;;;;;;;6.28;3.22;;;;;;;;;;5036537;28;20025;-79
2023/01/20 07:11:44;;;;;;;4.20;3.33;;;;;;;;;;5042343;28;20049;-80
2023/01/20 07:14:10;;;;;;;4.75;3.35;;;;;;;;;;5018461;28;20053;-79
2023/01/20 07:16:35;;;;;;;4.20;3.13;;;;;;;;;;5036055;28;20033;-80
2023/01/20 07:19:01;;;;;;;4.07;3.25;;;;;;;;;;5002082;28;20037;-80
2023/01/20 07:21:26;;;;;;;4.53;3.40;;;;;;;;;;5018327;28;20025;-81
2023/01/20 07:23:52;;;;;;;4.82;3.35;;;;;;;;;;5035962;28;20029;-80
2023/01/20 07:26:20;;;;;;;4.35;3.03;;;;;;;;;;5001841;28;20040;-80
2023/01/20 07:28:46;;;;;;;4.85;3.30;;;;;;;;;;5036350;28;20510;-80
2023/01/20 07:31:14;;;;;;;7.03;3.42;;;;;;;;;;5035826;28;20029;-80
2023/01/20 07:33:40;;;;;;;4.13;3.03;;;;;;;;;;5018148;28;20052;-80
2023/01/20 07:36:06;;;;;;;4.40;3.20;;;;;;;;;;5017993;28;20060;-80
2023/01/20 07:38:32;;;;;;;6.57;3.25;;;;;;;;;;5035786;28;20026;-79
2023/01/20 07:40:58;;;;;;;4.95;3.55;;;;;;;;;;5001597;28;20033;-81
2023/01/20 07:43:24;;;;;;;4.72;3.47;;;;;;;;;;5018437;28;20455;-81
2023/01/20 07:45:49;;;;;;;4.68;3.33;;;;;;;;;;5017872;28;20029;-81
2023/01/20 07:48:15;;;;;;;3.90;3.47;;;;;;;;;;5017939;28;20455;-81
2023/01/20 07:50:40;;;;;;;4.57;3.67;;;;;;;;;;5017749;28;20029;-81
2023/01/20 07:53:05;;;;;;;4.20;3.22;;;;;;;;;;5017942;28;20063;-80
2023/01/20 07:55:32;;;;;;;6.10;3.53;;;;;;;;;;5018010;28;20033;-80
2023/01/20 07:57:57;;;;;;;4.40;3.53;;;;;;;;;;5001042;28;20179;-80
2023/01/20 08:00:23;;;;;;;5.03;3.38;;;;;;;;;;5035571;28;20124;-80
2023/01/20 08:02:49;;;;;;;6.50;3.78;;;;;;;;;;5017634;28;20040;-80
2023/01/20 08:05:14;;;;;;;3.85;3.05;;;;;;;;;;5016689;28;20361;-80
2023/01/20 08:07:39;;;;;;;4.72;3.60;;;;;;;;;;5035420;28;20097;-80
2023/01/20 08:10:05;;;;;;;4.30;3.22;;;;;;;;;;5035349;28;20399;-81
2023/01/20 08:12:31;;;;;;;3.50;3.20;;;;;;;;;;5034868;28;20137;-85
2023/01/20 08:14:56;;;;;;;4.97;3.53;;;;;;;;;;5001230;28;20070;-81
2023/01/20 08:17:22;;;;;;;4.68;3.72;;;;;;;;;;5017163;28;20030;-83
2023/01/20 08:19:47;;;;;;;7.95;4.35;;;;;;;;;;5000660;28;20029;-82
2023/01/20 08:22:12;;;;;;;16.20;5.15;;;;;;;;;;5034686;28;20036;-79
2023/01/20 08:24:38;;;;;;;17.10;5.93;;;;;;;;;;5001079;28;20091;-79
2023/01/20 08:27:03;;;;;;;12.88;6.30;;;;;;;;;;5035118;28;20399;-80
2023/01/20 08:29:30;;;;;;;14.25;6.18;;;;;;;;;;5017095;28;20022;-81
2023/01/20 08:31:58;;;;;;;16.88;6.07;;;;;;;;;;5001113;28;20037;-79
2023/01/20 08:34:24;;;;;;;15.32;5.32;;;;;;;;;;5016884;28;20087;-80
2023/01/20 08:36:52;;;;;;;10.63;4.85;;;;;;;;;;5017196;28;20026;-79
2023/01/20 08:39:17;;;;;;;20.95;5.38;;;;;;;;;;5001806;28;20496;-79
2023/01/20 08:41:44;;;;;;;12.68;4.72;;;;;;;;;;5016980;28;20064;-79
2023/01/20 08:44:10;;;;;;;13.98;5.05;;;;;;;;;;5017197;28;20128;-79
2023/01/20 08:46:36;;;;;;;20.25;4.90;;;;;;;;;;5000413;28;20025;-78
2023/01/20 08:49:15;;;;;;;25.23;4.63;;;;;;;;;;5016732;28;20040;-79
2023/01/20 08:51:40;;;;;;;9.05;4.57;;;;;;;;;;5016755;28;20139;-79
2023/01/20 08:54:06;;;;;;;7.32;4.03;;;;;;;;;;5017110;28;20536;-79
2023/01/20 08:56:32;;;;;;;14.10;4.35;;;;;;;;;;5000723;28;20103;-80
2023/01/20 08:58:58;;;;;;;9.15;4.22;;;;;;;;;;5034383;28;20075;-79
2023/01/20 09:01:29;;;;;;;15.30;4.63;;;;;;;;;;5017311;28;20029;-79
2023/01/20 09:03:54;;;;;;;11.68;4.40;;;;;;;;;;5001364;28;20518;-80
2023/01/20 09:06:20;;;;;;;14.75;4.22;;;;;;;;;;5016387;28;20057;-79
2023/01/20 09:08:47;;;;;;;13.98;4.03;;;;;;;;;;5016733;28;20060;-79
2023/01/20 09:11:17;;;;;;;10.23;3.92;;;;;;;;;;5016591;28;20468;-80
2023/01/20 09:13:43;;;;;;;12.45;4.93;;;;;;;;;;5019741;28;20132;-79
2023/01/20 09:16:11;;;;;;;12.65;4.07;;;;;;;;;;5034183;28;20064;-80
2023/01/20 09:18:36;;;;;;;8.75;4.07;;;;;;;;;;5034486;28;20029;-79
2023/01/20 09:21:05;;;;;;;15.43;4.70;;;;;;;;;;5016829;28;20025;-80
2023/01/20 09:23:31;;;;;;;13.02;4.60;;;;;;;;;;5034372;28;20025;-80
2023/01/20 09:25:58;;;;;;;8.48;3.75;;;;;;;;;;5017395;28;20491;-81
2023/01/20 09:28:24;;;;;;;8.73;3.97;;;;;;;;;;5017102;28;20469;-80
2023/01/20 09:30:49;;;;;;;11.70;3.83;;;;;;;;;;5034908;28;20029;-80
2023/01/20 09:33:15;;;;;;;11.13;4.00;;;;;;;;;;5000214;28;20036;-80
2023/01/20 09:35:40;;;;;;;13.68;4.00;;;;;;;;;;4999968;28;20033;-80
2023/01/20 09:44:06;;;;;;;17.93;5.07;;;;;;;;;;5033799;28;20503;-81
2023/01/20 09:46:32;;;;;;;11.82;3.88;;;;;;;;;;5015824;28;20033;-80
2023/01/20 09:55:55;;;;;;;10.18;4.00;;;;;;;;;;5018606;28;20052;-80
2023/01/20 09:58:57;;;;;;;6.53;4.10;;;;;;;;;;5032939;28;20025;-79
2023/01/20 10:01:49;;;;;;;12.85;4.43;;;;;;;;;;5033318;28;20406;-79
2023/01/20 10:04:31;;;;;;;10.95;4.05;;;;;;;;;;5015831;28;20419;-79
2023/01/20 10:07:17;;;;;;;8.88;4.30;;;;;;;;;;5033245;28;20025;-80
2023/01/20 10:09:54;;;;;;;9.95;4.10;;;;;;;;;;5008353;28;20045;-80
2023/01/20 10:12:31;;;;;;;8.50;4.20;;;;;;;;;;5033049;28;20049;-79
2023/01/20 10:15:15;;;;;;;9.82;4.80;;;;;;;;;;5033361;28;20132;-80
2023/01/20 10:17:47;;;;;;;8.23;3.97;;;;;;;;;;5015777;28;20129;-80
2023/01/20 10:20:41;;;;;;;7.22;4.05;;;;;;;;;;5034281;28;20033;-79
2023/01/20 10:24:02;;;;;;;6.05;4.00;;;;;;;;;;5013920;28;20083;-80
2023/01/20 10:26:37;;;;;;;7.20;4.10;;;;;;;;;;4972346;28;20035;-79
2023/01/20 10:29:06;;;;;;;9.93;4.25;;;;;;;;;;4958219;28;20082;-79
2023/01/20 10:31:37;;;;;;;12.18;3.67;;;;;;;;;;4959934;28;20035;-79
2023/01/20 10:34:11;;;;;;;8.15;3.83;;;;;;;;;;4943667;28;20068;-79
2023/01/20 10:36:39;;;;;;;6.60;4.15;;;;;;;;;;4945071;28;20509;-79
2023/01/20 10:39:28;;;;;;;6.40;3.95;;;;;;;;;;4976957;28;20059;-78
2023/01/20 10:42:03;;;;;;;6.68;4.18;;;;;;;;;;4960137;28;20117;-78
2023/01/20 10:44:32;;;;;;;7.20;4.07;;;;;;;;;;4959540;28;20114;-78
2023/01/20 10:47:00;;;;;;;8.20;4.10;;;;;;;;;;4943523;28;20437;-78
2023/01/20 10:49:57;;;;;;;16.20;4.40;;;;;;;;;;4959020;28;20027;-79
2023/01/20 10:52:40;;;;;;;7.10;4.10;;;;;;;;;;4959506;28;20073;-79
2023/01/20 10:55:17;;;;;;;6.87;4.33;;;;;;;;;;4943480;28;20441;-79
2023/01/20 10:57:44;;;;;;;6.70;3.88;;;;;;;;;;4975483;28;20319;-79
2023/01/20 11:00:21;;;;;;;6.40;4.00;;;;;;;;;;4983317;28;20095;-79
2023/01/20 11:02:48;;;;;;;5.55;3.85;;;;;;;;;;5002340;28;20043;-79
2023/01/20 11:05:20;;;;;;;7.72;3.85;;;;;;;;;;5002363;28;20037;-80
2023/01/20 11:07:46;;;;;;;8.38;3.95;;;;;;;;;;5018751;28;20028;-80
2023/01/20 11:10:17;;;;;;;6.55;3.72;;;;;;;;;;5037033;28;20503;-79
2023/01/20 11:12:44;;;;;;;8.52;4.00;;;;;;;;;;5025444;28;20474;-79
2023/01/20 11:15:22;;;;;;;7.18;3.92;;;;;;;;;;5035000;28;20040;-79
2023/01/20 11:18:13;;;;;;;5.57;3.55;;;;;;;;;;5034816;28;20048;-80
2023/01/20 11:20:59;;;;;;;8.75;3.42;;;;;;;;;;5033075;28;20499;-80
2023/01/20 11:23:36;;;;;;;6.35;4.13;;;;;;;;;;5035964;28;20041;-79
2023/01/20 11:26:32;;;;;;;7.25;3.30;;;;;;;;;;5035991;28;20108;-79
2023/01/20 11:29:23;;;;;;;5.53;3.28;;;;;;;;;;5018170;28;20037;-79
2023/01/20 11:31:51;;;;;;;5.55;3.38;;;;;;;;;;5034408;28;20056;-79
2023/01/20 11:34:18;;;;;;;5.53;3.97;;;;;;;;;;5034290;28;20030;-81
2023/01/20 11:36:44;;;;;;;8.98;3.83;;;;;;;;;;5034449;28;20032;-79
2023/01/20 11:39:29;;;;;;;5.55;3.50;;;;;;;;;;5035914;28;20038;-80
2023/01/20 11:42:18;;;;;;;9.95;3.85;;;;;;;;;;5033823;28;20116;-81
2023/01/20 11:44:55;;;;;;;5.65;3.40;;;;;;;;;;5017998;28;20142;-81
2023/01/20 11:47:25;;;;;;;6.43;3.60;;;;;;;;;;5034283;28;20485;-82
2023/01/20 11:50:03;;;;;;;5.50;3.53;;;;;;;;;;5034344;28;20087;-81
2023/01/20 11:52:44;;;;;;;6.50;3.15;;;;;;;;;;5035708;28;20421;-81
2023/01/20 11:55:20;;;;;;;6.95;4.25;;;;;;;;;;5034285;28;20051;-81
2023/01/20 11:57:55;;;;;;;9.75;3.42;;;;;;;;;;5034038;28;20044;-79
2023/01/20 12:00:28;;;;;;;6.10;3.53;;;;;;;;;;5034029;28;20017;-79
2023/01/20 12:03:23;;;;;;;4.10;3.28;;;;;;;;;;5034025;28;20103;-79
2023/01/20 12:06:09;;;;;;;;;;;;;;;;;;5034396;28;20025;-77
2023/01/20 12:09:15;;;;;;;3.55;2.88;;;;;;;;;;5033815;28;19918;-80
2023/01/20 12:12:05;;;;;;;5.63;3.38;;;;;;;;;;5033601;28;20539;-79
2023/01/20 12:14:41;;;;;;;4.93;3.03;;;;;;;;;;5017209;28;20034;-79
2023/01/20 12:17:15;;;;;;;4.90;3.30;;;;;;;;;;5001469;28;20449;-82
2023/01/20 12:20:04;;;;;;;4.32;3.13;;;;;;;;;;5017118;28;20080;-81
2023/01/20 12:22:52;;;;;;;4.45;3.10;;;;;;;;;;5017469;28;20045;-79
2023/01/20 12:25:24;;;;;;;7.85;3.15;;;;;;;;;;5017126;28;20120;-81
2023/01/20 12:27:54;;;;;;;5.60;3.50;;;;;;;;;;5017692;28;20021;-81
2023/01/20 12:30:40;;;;;;;4.43;2.70;;;;;;;;;;5000894;28;20033;-80
2023/01/20 12:33:15;;;;;;;5.53;2.95;;;;;;;;;;5017158;28;20017;-81
2023/01/20 12:35:46;;;;;;;5.45;3.22;;;;;;;;;;5016943;28;20021;-84
2023/01/20 12:38:17;;;;;;;3.80;3.10;;;;;;;;;;5016825;28;20579;-81
2023/01/20 12:40:51;;;;;;;7.43;3.17;;;;;;;;;;5000382;28;20025;-81
2023/01/20 12:43:35;;;;;;;7.57;3.28;;;;;;;;;;5000368;28;20034;-80
2023/01/20 12:46:13;;;;;;;6.20;3.20;;;;;;;;;;5034435;28;20025;-79
2023/01/20 12:48:42;;;;;;;7.10;2.90;;;;;;;;;;5000259;28;20029;-80
2023/01/20 12:51:21;;;;;;;5.07;3.58;;;;;;;;;;5034317;28;20426;-79
2023/01/20 12:54:01;;;;;;;5.78;3.10;;;;;;;;;;5016826;28;20079;-79
2023/01/20 12:56:56;;;;;;;5.43;2.97;;;;;;;;;;5034501;28;20021;-81
2023/01/20 12:59:28;;;;;;;;;;;;;;;;;;5034470;28;20535;-79
2023/01/20 13:02:00;;;;;;;5.13;2.92;;;;;;;;;;5016459;28;19959;-81
2023/01/20 13:04:56;;;;;;;4.75;3.15;;;;;;;;;;5034235;28;20025;-80
2023/01/20 13:07:37;;;;;;;5.45;3.20;;;;;;;;;;5033963;28;20391;-81
2023/01/20 13:10:21;;;;;;;5.63;3.67;;;;;;;;;;5000287;28;20041;-80
2023/01/20 13:12:57;;;;;;;6.55;3.58;;;;;;;;;;5035818;28;20046;-81
2023/01/20 13:16:00;;;;;;;4.40;3.10;;;;;;;;;;5016250;28;20044;-80
2023/01/20 13:18:44;;;;;;;4.55;2.80;;;;;;;;;;4953911;29;20465;-80
2023/01/20 13:21:17;;;;;;;5.35;3.22;;;;;;;;;;4937608;29;20031;-80
2023/01/20 13:23:43;;;;;;;;;;;;;;;;;;4937898;29;20039;-78
2023/01/20 13:26:08;;;;;;;6.07;3.10;;;;;;;;;;4938188;29;19910;-80
2023/01/20 13:28:33;;;;;;;7.25;3.40;;;;;;;;;;4937581;29;20059;-80
2023/01/20 13:31:00;;;;;;;4.50;3.20;;;;;;;;;;4953553;29;20051;-79
2023/01/20 13:33:33;;;;;;;3.72;3.10;;;;;;;;;;4937443;29;20042;-80
2023/01/20 13:36:00;;;;;;;5.55;3.50;;;;;;;;;;4937584;29;20137;-81
2023/01/20 13:38:32;;;;;;;4.70;3.20;;;;;;;;;;4937399;29;20047;-81
2023/01/20 13:41:02;;;;;;;5.60;3.50;;;;;;;;;;4937519;29;20031;-80
2023/01/20 13:43:42;;;;;;;5.82;3.40;;;;;;;;;;4937979;29;20054;-79
2023/01/20 13:46:07;;;;;;;6.15;3.28;;;;;;;;;;4953438;29;20035;-81
2023/01/20 13:48:37;;;;;;;6.07;3.33;;;;;;;;;;4956679;28;20034;-80
2023/01/20 13:51:14;;;;;;;4.85;3.17;;;;;;;;;;5015768;28;20535;-81
2023/01/20 13:53:40;;;;;;;11.18;4.00;;;;;;;;;;5033564;28;20032;-80
2023/01/20 13:56:31;;;;;;;7.32;3.65;;;;;;;;;;5015673;28;20087;-81
2023/01/20 13:58:57;;;;;;;9.73;3.72;;;;;;;;;;4999416;28;20392;-81
2023/01/20 14:01:23;;;;;;;14.35;4.30;;;;;;;;;;5015762;28;20021;-78
2023/01/20 14:04:04;;;;;;;13.40;5.07;;;;;;;;;;5032705;28;20136;-79
2023/01/20 14:06:31;;;;;;;10.77;4.53;;;;;;;;;;5016119;28;20036;-79
2023/01/20 14:08:57;;;;;;;10.27;4.32;;;;;;;;;;5015896;28;20024;-79
2023/01/20 14:11:28;;;;;;;12.23;4.53;;;;;;;;;;5015520;28;20038;-79
2023/01/20 14:13:55;;;;;;;10.75;4.35;;;;;;;;;;5015427;28;20049;-79
2023/01/20 14:16:37;;;;;;;8.98;3.95;;;;;;;;;;5015640;28;20025;-79
2023/01/20 14:19:26;;;;;;;12.27;4.50;;;;;;;;;;5015700;28;20040;-79
2023/01/20 14:21:54;;;;;;;10.88;4.88;;;;;;;;;;5033361;28;20017;-79
2023/01/20 14:25:00;;;;;;;7.88;3.88;;;;;;;;;;5015401;28;20468;-80
2023/01/20 14:27:27;;;;;;;9.50;3.95;;;;;;;;;;4959919;28;20052;-79
2023/01/20 14:29:54;;;;;;;14.00;3.97;;;;;;;;;;4975563;28;20072;-79
2023/01/20 14:32:25;;;;;;;12.27;4.38;;;;;;;;;;4991920;28;20136;-80
2023/01/20 14:34:54;;;;;;;9.77;3.90;;;;;;;;;;4975355;28;20038;-79
2023/01/20 14:37:20;;;;;;;6.32;3.75;;;;;;;;;;4975826;28;20465;-79
2023/01/20 14:39:49;;;;;;;6.88;4.15;;;;;;;;;;4991540;28;20042;-79
2023/01/20 14:42:19;;;;;;;10.88;4.10;;;;;;;;;;4959287;28;20516;-80
2023/01/20 14:44:51;;;;;;;5.47;3.28;;;;;;;;;;4959083;28;20045;-79
2023/01/20 14:47:18;;;;;;;7.20;3.75;;;;;;;;;;4975218;28;20035;-80
2023/01/20 14:49:48;;;;;;;6.90;3.80;;;;;;;;;;4991556;28;20505;-79
2023/01/20 14:52:23;;;;;;;8.43;3.30;;;;;;;;;;4975236;28;20026;-80
2023/01/20 14:54:49;;;;;;;6.00;3.30;;;;;;;;;;4975560;28;20034;-80
2023/01/20 14:57:30;;;;;;;10.27;3.92;;;;;;;;;;4975179;28;20034;-80
2023/01/20 15:00:16;;;;;;;7.20;3.60;;;;;;;;;;4975379;28;20058;-79
2023/01/20 15:02:46;;;;;;;8.32;3.53;;;;;;;;;;5032740;28;20132;-79
2023/01/20 15:05:29;;;;;;;6.78;3.72;;;;;;;;;;4998760;28;20075;-79
2023/01/20 15:08:10;;;;;;;5.57;3.10;;;;;;;;;;5032677;28;20084;-80
2023/01/20 15:10:36;;;;;;;5.13;3.05;;;;;;;;;;5032704;28;20492;-80
2023/01/20 15:13:01;;;;;;;8.43;3.10;;;;;;;;;;5005637;28;20081;-80
2023/01/20 15:15:29;;;;;;;5.15;2.90;;;;;;;;;;5033692;28;20392;-80
2023/01/20 15:18:02;;;;;;;4.30;2.80;;;;;;;;;;5034815;28;20040;-79